createdAt,value
2019-05-05T00:00:41.815Z,445.85
2019-05-05T00:01:41.780Z,473.77
2019-05-05T00:02:41.817Z,429.50
2019-05-05T00:03:41.770Z,436.04
2019-05-05T00:04:41.768Z,444.10
2019-05-05T00:05:41.747Z,471.26
2019-05-05T00:06:41.740Z,457.40
2019-05-05T00:07:41.771Z,477.02
2019-05-05T00:08:41.718Z,460.80
2019-05-05T00:09:41.700Z,485.83
2019-05-05T00:10:41.705Z,463.21
2019-05-05T00:11:41.682Z,483.88
2019-05-05T00:12:41.694Z,461.97
2019-05-05T00:13:41.660Z,482.79
2019-05-05T00:14:41.657Z,484.75
2019-05-05T00:15:41.641Z,485.43
2019-05-05T00:16:41.631Z,481.69
2019-05-05T00:17:41.656Z,480.18
2019-05-05T00:18:41.611Z,480.01
2019-05-05T00:19:41.594Z,462.59
2019-05-05T00:20:41.596Z,468.24
2019-05-05T00:21:41.572Z,466.71
2019-05-05T00:22:41.578Z,468.98
2019-05-05T00:23:41.562Z,463.79
2019-05-05T00:24:41.559Z,463.31
2019-05-05T00:25:41.539Z,460.03
2019-05-05T00:26:41.518Z,457.37
2019-05-05T00:27:41.549Z,457.38
2019-05-05T00:28:41.502Z,462.05
2019-05-05T00:29:41.494Z,461.80
2019-05-05T00:30:41.475Z,459.22
2019-05-05T00:31:41.460Z,455.35
2019-05-05T00:32:41.455Z,455.95
2019-05-05T00:33:41.453Z,453.32
2019-05-05T00:34:41.425Z,459.58
2019-05-05T00:35:41.430Z,461.04
2019-05-05T00:36:41.409Z,461.43
2019-05-05T00:37:41.401Z,460.77
2019-05-05T00:38:41.416Z,459.35
2019-05-05T00:39:41.378Z,460.43
2019-05-05T00:40:41.359Z,463.86
2019-05-05T00:41:41.345Z,466.44
2019-05-05T00:42:41.336Z,470.93
2019-05-05T00:43:41.339Z,471.92
2019-05-05T00:44:41.311Z,473.33
2019-05-05T00:45:41.311Z,475.74
2019-05-05T00:46:41.302Z,479.01
2019-05-05T00:47:41.281Z,469.15
2019-05-05T00:48:41.309Z,465.01
2019-05-05T00:49:46.357Z,464.85
2019-05-05T00:50:42.260Z,466.79
2019-05-05T00:51:41.239Z,472.08
2019-05-05T00:52:41.243Z,477.81
2019-05-05T00:53:41.255Z,474.66
2019-05-05T00:54:41.221Z,467.98
2019-05-05T00:55:41.197Z,465.22
2019-05-05T00:56:41.186Z,459.94
2019-05-05T00:57:41.173Z,453.40
2019-05-05T00:58:41.194Z,456.40
2019-05-05T00:59:41.261Z,455.64
2019-05-05T01:00:41.161Z,447.74
2019-05-05T01:01:41.135Z,450.12
2019-05-05T01:02:41.155Z,453.97
2019-05-05T01:03:41.143Z,454.48
2019-05-05T01:04:41.119Z,451.62
2019-05-05T01:05:41.096Z,456.00
2019-05-05T01:06:41.078Z,449.86
2019-05-05T01:07:41.065Z,459.53
2019-05-05T01:08:41.078Z,456.35
2019-05-05T01:09:41.086Z,458.51
2019-05-05T01:10:41.027Z,457.72
2019-05-05T01:11:41.025Z,458.64
2019-05-05T01:12:41.001Z,462.16
2019-05-05T01:13:41.020Z,467.89
2019-05-05T01:14:40.993Z,469.46
2019-05-05T01:15:40.977Z,455.76
2019-05-05T01:16:40.962Z,456.16
2019-05-05T01:17:40.958Z,459.83
2019-05-05T01:18:40.971Z,464.94
2019-05-05T01:19:40.938Z,463.83
2019-05-05T01:20:40.917Z,463.96
2019-05-05T01:21:40.914Z,456.99
2019-05-05T01:22:40.904Z,456.43
2019-05-05T01:23:40.922Z,456.01
2019-05-05T01:24:40.882Z,466.58
2019-05-05T01:25:40.878Z,455.23
2019-05-05T01:26:40.854Z,453.98
2019-05-05T01:27:40.850Z,457.74
2019-05-05T01:28:40.860Z,458.06
2019-05-05T01:29:40.838Z,473.12
2019-05-05T01:30:40.816Z,473.37
2019-05-05T01:31:40.803Z,470.79
2019-05-05T01:32:40.800Z,467.75
2019-05-05T01:33:40.788Z,463.43
2019-05-05T01:34:40.818Z,465.24
2019-05-05T01:35:40.783Z,469.12
2019-05-05T01:36:40.752Z,466.92
2019-05-05T01:37:40.739Z,472.00
2019-05-05T01:38:40.724Z,468.34
2019-05-05T01:39:40.740Z,468.16
2019-05-05T01:40:40.704Z,474.47
2019-05-05T01:41:40.687Z,470.17
2019-05-05T01:42:40.693Z,470.55
2019-05-05T01:43:40.663Z,466.79
2019-05-05T01:44:40.692Z,471.93
2019-05-05T01:45:40.645Z,469.79
2019-05-05T01:46:40.646Z,468.78
2019-05-05T01:51:09.588Z,557.42
2019-05-05T01:52:09.548Z,476.27
2019-05-05T01:53:09.535Z,474.82
2019-05-05T01:54:09.517Z,478.36
2019-05-05T01:55:09.538Z,480.70
2019-05-05T01:56:09.499Z,480.79
2019-05-05T01:57:09.487Z,480.97
2019-05-05T01:58:09.476Z,476.49
2019-05-05T01:59:09.471Z,478.33
2019-05-05T02:00:09.470Z,469.98
2019-05-05T02:01:09.438Z,474.35
2019-05-05T02:02:09.430Z,478.51
2019-05-05T02:03:09.419Z,476.11
2019-05-05T02:04:09.402Z,481.67
2019-05-05T02:05:09.414Z,477.46
2019-05-05T02:06:09.384Z,472.76
2019-05-05T02:07:09.389Z,476.99
2019-05-05T02:08:09.364Z,476.79
2019-05-05T02:09:09.353Z,465.63
2019-05-05T02:10:09.389Z,462.88
2019-05-05T02:11:10.935Z,473.57
2019-05-05T02:12:09.322Z,472.68
2019-05-05T02:13:09.305Z,470.75
2019-05-05T02:14:09.309Z,474.26
2019-05-05T02:15:09.349Z,477.19
2019-05-05T02:16:09.279Z,480.48
2019-05-05T02:17:09.260Z,479.84
2019-05-05T02:18:09.301Z,474.72
2019-05-05T02:19:09.243Z,473.18
2019-05-05T02:20:09.264Z,468.46
2019-05-05T02:21:09.243Z,469.48
2019-05-05T02:22:09.273Z,499.46
2019-05-05T02:23:09.195Z,478.33
2019-05-05T02:24:09.203Z,507.78
2019-05-05T02:25:09.205Z,505.93
2019-05-05T02:26:09.181Z,496.26
2019-05-05T02:27:09.152Z,477.97
2019-05-05T02:28:09.162Z,510.00
2019-05-05T02:29:09.137Z,511.88
2019-05-05T02:30:09.157Z,510.17
2019-05-05T02:31:09.110Z,477.42
2019-05-05T02:32:09.102Z,502.41
2019-05-05T02:33:09.108Z,499.32
2019-05-05T02:34:09.113Z,477.13
2019-05-05T02:35:09.107Z,481.51
2019-05-05T02:36:09.082Z,480.63
2019-05-05T02:37:09.051Z,473.57
2019-05-05T02:38:09.036Z,460.33
2019-05-05T02:39:09.023Z,474.80
2019-05-05T02:40:09.047Z,474.32
2019-05-05T02:41:09.021Z,473.93
2019-05-05T02:42:09.013Z,474.49
2019-05-05T02:43:08.980Z,464.03
2019-05-05T02:44:08.993Z,489.95
2019-05-05T02:45:08.974Z,469.55
2019-05-05T02:46:08.978Z,490.31
2019-05-05T02:47:08.962Z,489.80
2019-05-05T02:48:08.922Z,470.16
2019-05-05T02:49:08.935Z,491.14
2019-05-05T02:50:08.911Z,493.00
2019-05-05T02:51:08.979Z,495.28
2019-05-05T02:52:08.884Z,495.50
2019-05-05T02:53:08.871Z,497.64
2019-05-05T02:54:08.862Z,474.07
2019-05-05T02:55:08.850Z,498.69
2019-05-05T02:56:08.870Z,481.71
2019-05-05T02:57:08.822Z,502.18
2019-05-05T02:58:08.814Z,500.90
2019-05-05T02:59:08.811Z,480.80
2019-05-05T03:00:08.788Z,499.76
2019-05-05T03:01:08.800Z,483.65
2019-05-05T03:02:08.777Z,480.44
2019-05-05T03:03:08.764Z,484.72
2019-05-05T03:04:08.756Z,504.17
2019-05-05T03:05:08.734Z,504.96
2019-05-05T03:06:08.769Z,506.03
2019-05-05T03:07:08.772Z,481.93
2019-05-05T03:08:08.716Z,506.31
2019-05-05T03:09:08.693Z,482.42
2019-05-05T03:10:08.692Z,485.70
2019-05-05T03:11:08.678Z,482.42
2019-05-05T03:12:11.028Z,507.94
2019-05-05T03:13:08.655Z,508.41
2019-05-05T03:14:08.650Z,507.59
2019-05-05T03:15:08.623Z,509.01
2019-05-05T03:16:08.623Z,510.34
2019-05-05T03:17:08.627Z,502.13
2019-05-05T03:18:08.610Z,487.00
2019-05-05T03:19:08.584Z,505.39
2019-05-05T03:20:08.582Z,509.32
2019-05-05T03:21:08.562Z,502.61
2019-05-05T03:22:08.575Z,507.48
2019-05-05T03:23:08.545Z,509.97
2019-05-05T03:24:08.525Z,509.00
2019-05-05T03:25:08.517Z,484.75
2019-05-05T03:26:08.501Z,509.26
2019-05-05T03:27:08.521Z,495.62
2019-05-05T03:28:08.497Z,500.10
2019-05-05T03:29:08.475Z,497.24
2019-05-05T03:30:08.466Z,496.54
2019-05-05T03:31:08.464Z,474.10
2019-05-05T03:32:11.534Z,496.26
2019-05-05T03:33:08.428Z,476.67
2019-05-05T03:34:08.439Z,498.07
2019-05-05T03:35:08.430Z,476.45
2019-05-05T03:36:08.403Z,503.81
2019-05-05T03:37:08.407Z,475.39
2019-05-05T03:38:08.381Z,495.76
2019-05-05T03:39:08.381Z,470.35
2019-05-05T03:40:08.361Z,482.08
2019-05-05T03:41:08.345Z,482.20
2019-05-05T03:42:08.363Z,505.85
2019-05-05T03:43:08.319Z,482.24
2019-05-05T03:44:08.341Z,499.17
2019-05-05T03:45:08.304Z,507.61
2019-05-05T03:46:08.289Z,504.33
2019-05-05T03:47:08.285Z,506.32
2019-05-05T03:48:08.300Z,497.59
2019-05-05T03:49:08.262Z,497.65
2019-05-05T03:50:08.244Z,499.52
2019-05-05T03:51:18.294Z,484.10
2019-05-05T03:52:09.330Z,503.61
2019-05-05T03:53:08.237Z,503.89
2019-05-05T03:54:08.201Z,505.19
2019-05-05T03:55:08.193Z,481.21
2019-05-05T03:56:08.188Z,500.73
2019-05-05T03:57:08.167Z,502.33
2019-05-05T03:58:08.188Z,485.21
2019-05-05T03:59:08.155Z,479.72
2019-05-05T04:00:08.142Z,484.32
2019-05-05T04:01:08.136Z,488.25
2019-05-05T04:02:08.107Z,486.37
2019-05-05T04:03:08.134Z,480.86
2019-05-05T04:04:08.091Z,487.88
2019-05-05T04:05:08.084Z,487.38
2019-05-05T04:06:08.072Z,488.25
2019-05-05T04:07:08.074Z,487.31
2019-05-05T04:08:08.067Z,485.53
2019-05-05T04:09:08.034Z,489.95
2019-05-05T04:10:08.039Z,488.63
2019-05-05T04:11:08.008Z,490.96
2019-05-05T04:12:08.012Z,491.07
2019-05-05T04:13:08.026Z,491.67
2019-05-05T04:14:07.995Z,487.13
2019-05-05T04:15:07.982Z,482.51
2019-05-05T04:16:07.970Z,489.36
2019-05-05T04:17:07.949Z,487.85
2019-05-05T04:18:07.962Z,489.70
2019-05-05T04:19:07.939Z,487.98
2019-05-05T04:20:07.928Z,488.92
2019-05-05T04:21:07.908Z,484.35
2019-05-05T04:22:07.894Z,489.36
2019-05-05T04:23:07.916Z,488.38
2019-05-05T04:24:07.896Z,489.65
2019-05-05T04:25:07.871Z,488.11
2019-05-05T04:26:07.863Z,484.32
2019-05-05T04:27:07.847Z,488.56
2019-05-05T04:28:07.855Z,489.62
2019-05-05T04:29:08.421Z,487.52
2019-05-05T04:30:07.811Z,481.74
2019-05-05T04:31:07.802Z,486.64
2019-05-05T04:32:07.853Z,489.14
2019-05-05T04:33:07.811Z,488.38
2019-05-05T04:34:07.769Z,489.71
2019-05-05T04:35:07.764Z,490.74
2019-05-05T04:36:07.744Z,487.87
2019-05-05T04:37:07.745Z,490.44
2019-05-05T04:38:07.721Z,488.72
2019-05-05T04:39:07.739Z,488.25
2019-05-05T04:40:07.703Z,492.72
2019-05-05T04:41:07.677Z,491.79
2019-05-05T04:42:07.681Z,487.19
2019-05-05T04:43:07.691Z,493.64
2019-05-05T04:44:07.682Z,490.60
2019-05-05T04:45:07.652Z,492.61
2019-05-05T04:46:07.637Z,490.28
2019-05-05T04:47:07.617Z,490.44
2019-05-05T04:48:07.671Z,490.08
2019-05-05T04:49:07.630Z,489.58
2019-05-05T04:50:07.588Z,490.07
2019-05-05T04:51:07.585Z,482.42
2019-05-05T04:52:07.573Z,488.82
2019-05-05T04:53:07.555Z,488.14
2019-05-05T04:54:07.565Z,481.41
2019-05-05T04:55:07.525Z,483.95
2019-05-05T04:56:07.528Z,487.03
2019-05-05T04:57:07.515Z,488.99
2019-05-05T04:58:07.510Z,491.59
2019-05-05T04:59:07.519Z,490.19
2019-05-05T05:00:07.487Z,484.39
2019-05-05T05:01:07.470Z,486.55
2019-05-05T05:02:07.463Z,491.52
2019-05-05T05:03:07.449Z,486.69
2019-05-05T05:04:07.477Z,489.03
2019-05-05T05:05:07.432Z,489.04
2019-05-05T05:06:07.421Z,492.02
2019-05-05T05:07:07.398Z,492.48
2019-05-05T05:08:07.393Z,489.02
2019-05-05T05:09:07.387Z,482.13
2019-05-05T05:10:07.386Z,478.12
2019-05-05T05:11:07.361Z,486.44
2019-05-05T05:12:07.362Z,482.13
2019-05-05T05:13:07.329Z,486.54
2019-05-05T05:14:07.331Z,483.71
2019-05-05T05:15:07.347Z,485.16
2019-05-05T05:16:07.308Z,479.34
2019-05-05T05:17:07.291Z,482.67
2019-05-05T05:18:07.276Z,481.75
2019-05-05T05:19:07.274Z,481.67
2019-05-05T05:20:07.285Z,477.23
2019-05-05T05:21:07.254Z,470.01
2019-05-05T05:22:07.247Z,470.21
2019-05-05T05:23:07.239Z,472.71
2019-05-05T05:24:07.217Z,480.40
2019-05-05T05:25:07.232Z,471.07
2019-05-05T05:26:07.203Z,474.86
2019-05-05T05:27:07.204Z,486.07
2019-05-05T05:28:07.183Z,487.59
2019-05-05T05:29:07.153Z,484.05
2019-05-05T05:30:07.187Z,475.17
2019-05-05T05:31:07.147Z,478.71
2019-05-05T05:32:07.127Z,480.92
2019-05-05T05:33:07.120Z,473.86
2019-05-05T05:34:07.120Z,479.41
2019-05-05T05:35:07.124Z,481.88
2019-05-05T05:36:07.082Z,484.46
2019-05-05T05:37:07.080Z,483.46
2019-05-05T05:38:07.072Z,468.80
2019-05-05T05:39:07.053Z,472.23
2019-05-05T05:40:07.054Z,481.42
2019-05-05T05:41:07.024Z,479.98
2019-05-05T05:42:07.026Z,474.25
2019-05-05T05:43:07.022Z,485.70
2019-05-05T05:44:07.008Z,491.71
2019-05-05T05:45:07.015Z,486.01
2019-05-05T05:46:06.980Z,492.23
2019-05-05T05:47:06.962Z,486.98
2019-05-05T05:48:06.962Z,489.35
2019-05-05T05:49:06.942Z,479.50
2019-05-05T05:50:06.979Z,480.22
2019-05-05T05:51:06.918Z,473.67
2019-05-05T05:52:15.786Z,473.77
2019-05-05T05:53:07.901Z,479.00
2019-05-05T05:54:06.891Z,480.48
2019-05-05T05:55:06.883Z,483.81
2019-05-05T05:56:06.890Z,484.46
2019-05-05T05:57:06.871Z,483.69
2019-05-05T05:58:06.839Z,480.30
2019-05-05T05:59:06.823Z,482.91
2019-05-05T06:00:06.819Z,482.81
2019-05-05T06:01:06.852Z,485.59
2019-05-05T06:02:12.302Z,486.95
2019-05-05T06:03:07.795Z,483.64
2019-05-05T06:04:06.793Z,489.59
2019-05-05T06:05:06.771Z,496.17
2019-05-05T06:06:06.776Z,491.12
2019-05-05T06:07:06.762Z,486.30
2019-05-05T06:08:06.743Z,485.14
2019-05-05T06:09:06.723Z,493.79
2019-05-05T06:10:06.718Z,489.89
2019-05-05T06:11:06.761Z,485.70
2019-05-05T06:12:06.706Z,485.77
2019-05-05T06:13:06.750Z,492.78
2019-05-05T06:14:06.672Z,485.81
2019-05-05T06:15:06.664Z,490.93
2019-05-05T06:16:06.668Z,474.49
2019-05-05T06:17:06.663Z,485.92
2019-05-05T06:18:06.624Z,486.11
2019-05-05T06:19:06.607Z,486.73
2019-05-05T06:20:06.613Z,476.95
2019-05-05T06:21:06.609Z,478.86
2019-05-05T06:22:06.588Z,481.81
2019-05-05T06:23:06.577Z,483.99
2019-05-05T06:24:06.571Z,477.99
2019-05-05T06:25:07.017Z,489.10
2019-05-05T06:26:07.207Z,485.32
2019-05-05T06:27:06.544Z,482.59
2019-05-05T06:28:06.509Z,475.70
2019-05-05T06:29:06.515Z,483.75
2019-05-05T06:30:06.495Z,478.20
2019-05-05T06:31:06.507Z,473.52
2019-05-05T06:32:06.481Z,472.18
2019-05-05T06:33:06.464Z,487.03
2019-05-05T06:34:06.458Z,488.84
2019-05-05T06:35:06.444Z,489.81
2019-05-05T06:36:06.459Z,491.59
2019-05-05T06:37:06.414Z,491.43
2019-05-05T06:38:06.423Z,493.65
2019-05-05T06:39:06.396Z,491.57
2019-05-05T06:40:06.389Z,494.27
2019-05-05T06:41:06.392Z,492.65
2019-05-05T06:42:06.382Z,487.54
2019-05-05T06:43:06.348Z,493.40
2019-05-05T06:44:06.348Z,495.43
2019-05-05T06:45:06.873Z,491.00
2019-05-05T06:46:06.360Z,490.93
2019-05-05T06:47:06.305Z,489.81
2019-05-05T06:48:06.292Z,487.79
2019-05-05T06:49:06.288Z,488.54
2019-05-05T06:50:06.274Z,489.48
2019-05-05T06:51:06.262Z,493.57
2019-05-05T06:52:06.276Z,495.02
2019-05-05T06:53:06.273Z,493.22
2019-05-05T06:54:06.252Z,496.00
2019-05-05T06:55:06.228Z,487.49
2019-05-05T06:56:06.234Z,493.80
2019-05-05T06:57:06.236Z,486.23
2019-05-05T06:58:06.193Z,488.82
2019-05-05T06:59:06.184Z,488.14
2019-05-05T07:00:06.160Z,494.44
2019-05-05T07:01:06.229Z,493.25
2019-05-05T07:02:06.174Z,499.02
2019-05-05T07:03:07.883Z,494.95
2019-05-05T07:04:06.124Z,492.20
2019-05-05T07:05:06.120Z,494.89
2019-05-05T07:06:06.104Z,499.18
2019-05-05T07:07:06.106Z,497.38
2019-05-05T07:08:06.078Z,501.43
2019-05-05T07:09:06.070Z,500.43
2019-05-05T07:10:06.065Z,493.85
2019-05-05T07:11:06.086Z,494.14
2019-05-05T07:12:06.072Z,489.69
2019-05-05T07:13:06.032Z,490.83
2019-05-05T07:14:06.023Z,497.50
2019-05-05T07:15:06.005Z,497.48
2019-05-05T07:16:05.996Z,498.84
2019-05-05T07:17:05.981Z,492.90
2019-05-05T07:18:05.986Z,495.21
2019-05-05T07:19:05.949Z,496.43
2019-05-05T07:20:05.939Z,499.85
2019-05-05T07:21:05.931Z,495.12
2019-05-05T07:22:05.935Z,496.52
2019-05-05T07:23:05.939Z,500.62
2019-05-05T07:24:05.917Z,502.11
2019-05-05T07:25:05.896Z,489.70
2019-05-05T07:26:05.890Z,491.61
2019-05-05T07:27:05.875Z,489.23
2019-05-05T07:28:05.878Z,478.86
2019-05-05T07:29:05.848Z,478.16
2019-05-05T07:30:05.855Z,481.66
2019-05-05T07:31:05.889Z,477.39
2019-05-05T07:32:05.830Z,491.66
2019-05-05T07:33:05.822Z,493.09
2019-05-05T07:34:05.807Z,495.08
2019-05-05T07:35:05.817Z,498.24
2019-05-05T07:36:06.164Z,496.89
2019-05-05T07:37:05.762Z,498.62
2019-05-05T07:38:05.764Z,502.17
2019-05-05T07:39:05.735Z,500.67
2019-05-05T07:40:05.725Z,500.35
2019-05-05T07:41:05.711Z,505.42
2019-05-05T07:42:05.785Z,502.53
2019-05-05T07:43:05.728Z,499.94
2019-05-05T07:44:05.681Z,502.10
2019-05-05T07:45:19.355Z,503.24
2019-05-05T07:46:06.665Z,507.59
2019-05-05T07:47:05.655Z,501.66
2019-05-05T07:48:06.056Z,503.13
2019-05-05T07:49:05.628Z,502.54
2019-05-05T07:50:05.619Z,506.36
2019-05-05T07:51:05.621Z,504.62
2019-05-05T07:52:05.621Z,503.47
2019-05-05T07:53:14.697Z,506.06
2019-05-05T07:54:06.590Z,505.47
2019-05-05T07:55:05.569Z,506.43
2019-05-05T07:56:07.613Z,508.25
2019-05-05T07:57:05.538Z,508.43
2019-05-05T07:58:05.527Z,504.92
2019-05-05T07:59:05.535Z,505.23
2019-05-05T08:00:05.550Z,505.02
2019-05-05T08:01:05.487Z,500.78
2019-05-05T08:02:05.487Z,500.71
2019-05-05T08:03:05.463Z,500.87
2019-05-05T08:04:05.477Z,501.23
2019-05-05T08:05:05.447Z,503.23
2019-05-05T08:06:05.435Z,506.00
2019-05-05T08:07:05.420Z,503.93
2019-05-05T08:08:05.482Z,503.69
2019-05-05T08:09:05.431Z,505.29
2019-05-05T08:10:05.393Z,508.38
2019-05-05T08:11:05.366Z,507.41
2019-05-05T08:12:05.375Z,508.14
2019-05-05T08:13:05.360Z,507.99
2019-05-05T08:14:05.358Z,508.30
2019-05-05T08:15:05.335Z,498.10
2019-05-05T08:16:05.341Z,496.72
2019-05-05T08:17:05.313Z,496.68
2019-05-05T08:18:05.304Z,500.96
2019-05-05T08:19:05.326Z,506.03
2019-05-05T08:20:05.280Z,507.55
2019-05-05T08:21:05.272Z,506.96
2019-05-05T08:22:05.254Z,498.09
2019-05-05T08:23:08.175Z,499.45
2019-05-05T08:24:05.298Z,501.17
2019-05-05T08:25:05.243Z,500.18
2019-05-05T08:26:05.212Z,502.09
2019-05-05T08:27:05.228Z,496.20
2019-05-05T08:28:05.192Z,492.48
2019-05-05T08:29:05.173Z,495.11
2019-05-05T08:30:05.363Z,494.83
2019-05-05T08:31:05.161Z,505.92
2019-05-05T08:32:05.146Z,503.76
2019-05-05T08:33:05.141Z,501.67
2019-05-05T08:34:05.121Z,498.38
2019-05-05T08:35:05.137Z,500.85
2019-05-05T08:36:05.105Z,499.32
2019-05-05T08:37:05.088Z,499.91
2019-05-05T08:38:05.075Z,496.70
2019-05-05T08:39:05.061Z,477.57
2019-05-05T08:40:05.071Z,487.94
2019-05-05T08:41:05.038Z,490.70
2019-05-05T08:42:05.043Z,495.01
2019-05-05T08:43:05.020Z,505.20
2019-05-05T08:44:05.009Z,505.52
2019-05-05T08:45:05.029Z,504.23
2019-05-05T08:46:05.079Z,508.23
2019-05-05T08:47:04.983Z,507.51
2019-05-05T08:48:05.165Z,506.20
2019-05-05T08:49:04.956Z,507.46
2019-05-05T08:50:04.971Z,506.15
2019-05-05T08:51:05.113Z,502.06
2019-05-05T08:52:04.916Z,498.41
2019-05-05T08:53:08.318Z,493.99
2019-05-05T08:54:04.897Z,486.96
2019-05-05T08:55:04.900Z,486.83
2019-05-05T08:56:04.905Z,489.66
2019-05-05T08:57:04.875Z,484.57
2019-05-05T08:58:04.855Z,484.96
2019-05-05T08:59:04.857Z,499.47
2019-05-05T09:00:05.004Z,504.10
2019-05-05T09:01:04.842Z,498.92
2019-05-05T09:02:04.817Z,499.03
2019-05-05T09:03:04.800Z,499.97
2019-05-05T09:04:04.788Z,498.55
2019-05-05T09:05:04.794Z,501.44
2019-05-05T09:06:04.875Z,501.80
2019-05-05T09:07:05.099Z,500.39
2019-05-05T09:08:04.780Z,500.47
2019-05-05T09:09:04.727Z,497.10
2019-05-05T09:10:04.732Z,485.54
2019-05-05T09:11:05.013Z,510.58
2019-05-05T09:12:04.717Z,498.04
2019-05-05T09:13:04.683Z,497.95
2019-05-05T09:14:04.671Z,495.11
2019-05-05T09:15:04.667Z,503.73
2019-05-05T09:16:04.696Z,506.72
2019-05-05T09:17:04.678Z,491.50
2019-05-05T09:18:05.070Z,500.98
2019-05-05T09:19:04.607Z,501.51
2019-05-05T09:20:04.690Z,501.67
2019-05-05T09:21:04.611Z,502.53
2019-05-05T09:22:08.292Z,502.44
2019-05-05T09:23:04.577Z,502.80
2019-05-05T09:24:05.373Z,500.41
2019-05-05T09:25:04.555Z,502.72
2019-05-05T09:26:04.544Z,499.58
2019-05-05T09:27:04.541Z,506.01
2019-05-05T09:28:06.138Z,509.63
2019-05-05T09:29:04.520Z,509.80
2019-05-05T09:30:04.515Z,509.07
2019-05-05T09:31:04.496Z,512.94
2019-05-05T09:32:04.499Z,518.57
2019-05-05T09:33:04.458Z,520.37
2019-05-05T09:34:04.454Z,519.52
2019-05-05T09:35:04.857Z,518.08
2019-05-05T09:36:04.776Z,512.05
2019-05-05T09:37:04.449Z,513.28
2019-05-05T09:38:04.414Z,505.22
2019-05-05T09:39:04.423Z,506.06
2019-05-05T09:40:04.582Z,515.36
2019-05-05T09:41:04.375Z,506.38
2019-05-05T09:42:04.412Z,509.10
2019-05-05T09:43:04.356Z,507.88
2019-05-05T09:44:04.402Z,509.89
2019-05-05T09:45:04.902Z,505.31
2019-05-05T09:46:04.332Z,511.44
2019-05-05T09:47:04.885Z,507.77
2019-05-05T09:48:04.409Z,504.94
2019-05-05T09:49:04.729Z,508.58
2019-05-05T09:50:04.277Z,507.54
2019-05-05T09:51:04.505Z,504.39
2019-05-05T09:52:04.983Z,504.94
2019-05-05T09:53:04.305Z,503.73
2019-05-05T09:54:11.890Z,509.78
2019-05-05T09:55:05.221Z,504.90
2019-05-05T09:56:04.243Z,515.19
2019-05-05T09:57:04.612Z,510.08
2019-05-05T09:58:04.522Z,510.41
2019-05-05T09:59:04.172Z,508.41
2019-05-05T10:00:04.680Z,503.97
2019-05-05T10:01:04.144Z,502.72
2019-05-05T10:02:04.439Z,505.43
2019-05-05T10:03:04.171Z,508.24
2019-05-05T10:04:04.527Z,504.14
2019-05-05T10:05:04.104Z,510.12
2019-05-05T10:06:04.921Z,507.95
2019-05-05T10:07:04.545Z,511.40
2019-05-05T10:08:04.119Z,506.59
2019-05-05T10:09:04.061Z,501.92
2019-05-05T10:10:04.615Z,508.49
2019-05-05T10:11:04.231Z,502.29
2019-05-05T10:12:04.794Z,515.67
2019-05-05T10:13:04.303Z,516.46
2019-05-05T10:14:04.046Z,509.15
2019-05-05T10:15:07.519Z,507.18
2019-05-05T10:16:04.138Z,513.15
2019-05-05T10:17:04.874Z,507.70
2019-05-05T10:18:03.984Z,504.63
2019-05-05T10:19:04.516Z,511.57
2019-05-05T10:20:04.034Z,507.59
2019-05-05T10:21:04.633Z,503.49
2019-05-05T10:22:04.203Z,506.42
2019-05-05T10:23:03.945Z,502.59
2019-05-05T10:24:04.573Z,503.68
2019-05-05T10:25:04.212Z,508.11
2019-05-05T10:26:04.369Z,503.82
2019-05-05T10:27:04.963Z,520.45
2019-05-05T10:28:04.405Z,499.81
2019-05-05T10:29:04.202Z,498.03
2019-05-05T10:30:04.198Z,512.96
2019-05-05T10:31:04.615Z,506.40
2019-05-05T10:32:04.610Z,501.77
2019-05-05T10:33:03.950Z,503.29
2019-05-05T10:34:04.480Z,508.48
2019-05-05T10:35:04.659Z,499.48
2019-05-05T10:36:03.767Z,499.73
2019-05-05T10:37:04.523Z,499.60
2019-05-05T10:38:03.751Z,502.93
2019-05-05T10:39:04.396Z,502.49
2019-05-05T10:40:03.760Z,500.47
2019-05-05T10:41:04.283Z,504.25
2019-05-05T10:42:04.056Z,516.45
2019-05-05T10:43:04.388Z,504.32
2019-05-05T10:44:05.537Z,513.52
2019-05-05T10:45:04.408Z,506.42
2019-05-05T10:46:03.936Z,509.82
2019-05-05T10:47:04.629Z,516.21
2019-05-05T10:48:04.186Z,511.00
2019-05-05T10:49:03.664Z,505.26
2019-05-05T10:50:05.039Z,524.28
2019-05-05T10:51:04.213Z,505.41
2019-05-05T10:52:03.915Z,503.38
2019-05-05T10:53:04.589Z,520.97
2019-05-05T10:54:04.094Z,503.44
2019-05-05T10:55:03.999Z,522.16
2019-05-05T10:56:04.432Z,513.50
2019-05-05T10:57:04.186Z,513.16
2019-05-05T10:58:03.589Z,505.96
2019-05-05T10:59:04.004Z,519.06
2019-05-05T11:00:12.250Z,501.86
2019-05-05T11:01:04.481Z,503.41
2019-05-05T11:02:04.925Z,509.82
2019-05-05T11:03:04.026Z,501.07
2019-05-05T11:04:03.450Z,505.15
2019-05-05T11:05:04.093Z,495.96
2019-05-05T11:06:04.494Z,508.00
2019-05-05T11:07:04.170Z,515.18
2019-05-05T11:08:04.388Z,510.02
2019-05-05T11:09:04.416Z,498.77
2019-05-05T11:10:03.659Z,498.45
2019-05-05T11:11:04.227Z,500.12
2019-05-05T11:12:03.362Z,526.70
2019-05-05T11:13:03.356Z,506.37
2019-05-05T11:14:03.809Z,530.05
2019-05-05T11:15:04.060Z,500.77
2019-05-05T11:16:04.007Z,505.14
2019-05-05T11:17:04.190Z,503.36
2019-05-05T11:18:03.988Z,533.59
2019-05-05T11:19:04.342Z,523.01
2019-05-05T11:20:03.750Z,507.31
2019-05-05T11:21:04.015Z,507.86
2019-05-05T11:22:03.265Z,497.71
2019-05-05T11:23:04.869Z,506.68
2019-05-05T11:24:03.230Z,512.93
2019-05-05T11:25:05.053Z,499.75
2019-05-05T11:26:03.232Z,499.30
2019-05-05T11:27:04.424Z,503.41
2019-05-05T11:28:03.473Z,511.58
2019-05-05T11:29:04.206Z,524.86
2019-05-05T11:30:03.962Z,505.79
2019-05-05T11:31:04.385Z,501.01
2019-05-05T11:32:03.651Z,524.07
2019-05-05T11:33:04.007Z,500.27
2019-05-05T11:34:03.120Z,533.65
2019-05-05T11:35:04.758Z,506.11
2019-05-05T11:36:04.480Z,511.21
2019-05-05T11:37:03.703Z,504.94
2019-05-05T11:38:03.617Z,516.99
2019-05-05T11:39:04.041Z,502.11
2019-05-05T11:40:04.218Z,504.60
2019-05-05T11:41:04.930Z,502.63
2019-05-05T11:42:04.411Z,507.91
2019-05-05T11:43:03.811Z,499.41
2019-05-05T11:44:04.051Z,502.21
2019-05-05T11:45:04.250Z,503.86
2019-05-05T11:46:02.998Z,527.23
2019-05-05T11:47:03.698Z,506.65
2019-05-05T11:48:02.959Z,502.91
2019-05-05T11:49:04.949Z,512.48
2019-05-05T11:50:04.381Z,522.99
2019-05-05T11:51:04.519Z,501.54
2019-05-05T11:52:04.616Z,518.83
2019-05-05T11:53:03.911Z,520.27
2019-05-05T11:54:04.699Z,539.31
2019-05-05T11:55:11.577Z,514.33
2019-05-05T11:56:04.273Z,537.97
2019-05-05T11:57:04.329Z,502.25
2019-05-05T11:58:03.568Z,513.27
2019-05-05T11:59:03.899Z,506.08
2019-05-05T12:00:03.848Z,529.50
2019-05-05T12:01:03.768Z,528.41
2019-05-05T12:02:03.811Z,504.74
2019-05-05T12:03:03.860Z,525.19
2019-05-05T12:04:04.063Z,512.33
2019-05-05T12:05:04.556Z,504.35
2019-05-05T12:06:04.003Z,498.37
2019-05-05T12:07:04.064Z,503.86
2019-05-05T12:08:03.922Z,509.19
2019-05-05T12:09:02.733Z,499.14
2019-05-05T12:10:02.735Z,512.66
2019-05-05T12:11:04.626Z,500.63
2019-05-05T12:12:03.810Z,500.78
2019-05-05T12:13:04.098Z,497.18
2019-05-05T12:14:03.847Z,499.69
2019-05-05T12:15:04.320Z,498.96
2019-05-05T12:16:04.636Z,499.02
2019-05-05T12:17:04.432Z,497.96
2019-05-05T12:18:03.815Z,499.39
2019-05-05T12:19:02.610Z,506.29
2019-05-05T12:20:04.681Z,503.37
2019-05-05T12:21:05.132Z,504.64
2019-05-05T12:22:02.573Z,517.96
2019-05-05T12:23:04.530Z,502.29
2019-05-05T12:24:03.846Z,507.12
2019-05-05T12:25:04.107Z,507.49
2019-05-05T12:26:04.577Z,495.54
2019-05-05T12:27:03.717Z,511.00
2019-05-05T12:28:04.414Z,515.06
2019-05-05T12:29:02.499Z,508.04
2019-05-05T12:30:03.771Z,498.18
2019-05-05T12:31:03.587Z,530.93
2019-05-05T12:32:02.489Z,517.05